createdAt,value
2019-03-23T00:18:08.305Z,64.60
2019-03-23T00:28:13.719Z,63.65
2019-03-23T00:38:18.316Z,73.83
2019-03-23T01:18:34.656Z,60.80
2019-03-23T01:48:46.863Z,54.30
2019-03-23T01:58:51.534Z,52.30
2019-03-23T02:29:03.699Z,48.00
2019-03-23T02:39:08.345Z,51.30
2019-03-23T03:29:28.702Z,53.60
2019-03-23T03:39:33.319Z,52.90
2019-03-23T04:19:49.667Z,57.03
2019-03-23T04:39:58.684Z,54.35
2019-03-23T04:50:03.371Z,52.35
2019-03-23T05:20:27.431Z,54.33
2019-03-23T05:50:40.963Z,47.83
2019-03-23T06:00:46.647Z,52.25
2019-03-23T06:10:51.274Z,49.40
2019-03-23T06:30:59.647Z,41.80
2019-03-23T07:01:12.265Z,33.25
2019-03-23T07:21:20.653Z,30.45
2019-03-23T07:51:32.631Z,28.42
2019-03-23T08:11:40.618Z,26.40
2019-03-23T08:41:53.076Z,23.83
2019-03-23T08:51:57.640Z,22.25
2019-03-23T09:02:02.261Z,21.33
2019-03-23T09:22:10.640Z,19.98
2019-03-23T09:42:19.257Z,19.10
2019-03-23T09:52:24.235Z,20.30
2019-03-23T10:12:33.100Z,19.00
2019-03-23T10:22:38.219Z,18.87
2019-03-23T10:42:47.246Z,19.10
2019-03-23T11:12:59.654Z,16.73
2019-03-23T11:33:07.623Z,18.37
2019-03-23T11:53:15.819Z,18.62
2019-03-23T12:03:20.969Z,17.85
2019-03-23T12:13:26.313Z,19.55
2019-03-23T12:37:20.653Z,20.60
2019-03-23T12:47:25.256Z,19.55
2019-03-23T13:07:34.253Z,19.35
2019-03-23T13:27:43.247Z,22.98
2019-03-23T14:18:03.646Z,19.90
2019-03-23T14:28:08.476Z,18.87
2019-03-23T14:38:13.086Z,19.00
2019-03-23T14:50:47.177Z,19.30
2019-03-23T15:10:55.616Z,17.70
2019-03-23T15:31:04.085Z,24.30
2019-03-23T15:41:10.238Z,17.70
2019-03-23T16:01:18.641Z,21.90
2019-03-23T16:11:23.234Z,19.40
2019-03-23T16:31:31.601Z,23.67
2019-03-23T16:41:36.024Z,39.35
2019-03-23T16:51:41.019Z,92.75
2019-03-23T17:27:53.646Z,37.03
2019-03-23T17:37:58.243Z,95.97
2019-03-23T17:48:03.100Z,145.80
2019-03-23T18:18:16.039Z,67.85
2019-03-23T18:28:21.095Z,56.25
2019-03-23T19:09:13.053Z,53.02
2019-03-23T19:19:18.117Z,55.50
2019-03-23T19:29:23.096Z,53.95
2019-03-23T19:39:28.136Z,41.98
2019-03-23T19:49:32.629Z,53.40
2019-03-23T19:59:37.253Z,54.35
2019-03-23T20:29:51.117Z,49.63
2019-03-23T20:50:00.398Z,45.40
2019-03-23T21:20:14.323Z,54.33
2019-03-23T21:40:22.716Z,55.65
2019-03-23T21:50:27.334Z,55.50
2019-03-23T22:10:39.449Z,48.80
2019-03-23T22:20:44.256Z,37.80
2019-03-23T22:40:53.023Z,32.17
2019-03-23T22:50:58.277Z,29.95
2019-03-23T23:21:10.791Z,18.73
2019-03-23T23:31:16.306Z,18.85
2019-03-23T23:51:24.702Z,18.45
